createdAt,value
2022-07-27T00:05:25.325Z,3.60
2022-07-27T00:15:26.139Z,3.10
2022-07-27T00:25:25.496Z,3.50
2022-07-27T00:35:25.723Z,3.10
2022-07-27T00:45:25.365Z,3.80
2022-07-27T00:55:25.520Z,3.50
2022-07-27T01:05:35.820Z,3.90
2022-07-27T01:15:25.399Z,4.10
2022-07-27T01:25:25.423Z,4.00
2022-07-27T01:35:25.657Z,4.20
2022-07-27T01:45:25.602Z,3.80
2022-07-27T01:55:25.519Z,4.10
2022-07-27T02:05:25.368Z,4.10
2022-07-27T02:15:25.303Z,4.30
2022-07-27T02:25:25.439Z,4.00
2022-07-27T02:35:25.365Z,4.00
2022-07-27T02:45:25.292Z,3.80
2022-07-27T02:55:25.404Z,3.80
2022-07-27T03:05:25.348Z,3.80
2022-07-27T03:15:26.133Z,3.40
2022-07-27T03:25:25.307Z,3.50
2022-07-27T03:35:25.335Z,3.50
2022-07-27T03:45:25.339Z,3.30
2022-07-27T03:55:25.708Z,3.40
2022-07-27T04:05:25.227Z,3.70
2022-07-27T04:15:25.235Z,4.00
2022-07-27T04:25:25.238Z,4.10
2022-07-27T04:35:26.698Z,3.50
2022-07-27T04:45:25.247Z,3.50
2022-07-27T04:55:25.259Z,4.10
2022-07-27T05:05:25.254Z,3.90
2022-07-27T05:15:25.258Z,3.80
2022-07-27T05:25:25.262Z,3.80
2022-07-27T05:35:25.286Z,3.70
2022-07-27T05:45:25.320Z,3.90
2022-07-27T05:55:25.267Z,3.40
2022-07-27T06:05:25.274Z,4.90
2022-07-27T06:15:25.279Z,4.30
2022-07-27T06:25:34.264Z,4.00
2022-07-27T06:35:25.322Z,3.70
2022-07-27T06:45:25.298Z,3.10
2022-07-27T06:55:25.294Z,2.60
2022-07-27T07:05:25.302Z,2.20
2022-07-27T07:15:25.301Z,2.40
2022-07-27T07:25:25.316Z,2.30
2022-07-27T07:35:25.342Z,2.70
2022-07-27T07:45:25.318Z,2.80
2022-07-27T07:55:25.370Z,2.40
2022-07-27T08:05:25.334Z,2.70
2022-07-27T08:15:34.670Z,3.20
2022-07-27T08:25:25.335Z,2.60
2022-07-27T08:35:25.364Z,2.20
2022-07-27T08:45:25.371Z,2.90
2022-07-27T08:55:25.364Z,3.40
2022-07-27T09:05:25.358Z,3.70
2022-07-27T09:15:33.989Z,4.20
2022-07-27T09:25:52.062Z,3.10
2022-07-27T09:35:25.400Z,3.10
2022-07-27T09:45:25.367Z,2.30
2022-07-27T09:55:25.379Z,1.70
2022-07-27T10:05:25.397Z,1.80
2022-07-27T10:15:25.403Z,1.70
2022-07-27T10:25:25.394Z,1.30
2022-07-27T10:35:25.421Z,1.10
2022-07-27T10:45:25.405Z,1.20
2022-07-27T10:55:25.406Z,1.30
2022-07-27T11:05:58.479Z,1.30
2022-07-27T11:15:25.401Z,1.30
2022-07-27T11:35:25.449Z,1.30
2022-07-27T11:45:25.419Z,1.20
2022-07-27T11:55:25.434Z,1.20
2022-07-27T12:05:25.577Z,1.00
2022-07-27T12:15:45.372Z,0.80
2022-07-27T12:25:25.450Z,0.90
2022-07-27T12:35:25.482Z,0.60
2022-07-27T12:45:25.459Z,1.00
2022-07-27T12:55:25.484Z,0.80
2022-07-27T13:05:25.460Z,1.10
2022-07-27T13:15:25.472Z,0.90
2022-07-27T13:25:25.511Z,1.00
2022-07-27T13:35:25.519Z,1.10
2022-07-27T13:45:25.587Z,0.90
2022-07-27T13:55:28.294Z,1.30
2022-07-27T14:05:25.658Z,1.50
2022-07-27T14:15:25.498Z,1.50
2022-07-27T14:25:25.498Z,1.00
2022-07-27T14:35:25.533Z,1.00
2022-07-27T14:45:44.528Z,1.30
2022-07-27T14:55:25.512Z,1.20
2022-07-27T15:05:25.511Z,1.40
2022-07-27T15:15:26.634Z,1.40
2022-07-27T15:25:25.522Z,1.80
2022-07-27T15:35:25.552Z,1.90
2022-07-27T15:45:25.523Z,1.70
2022-07-27T15:55:25.548Z,1.80
2022-07-27T16:05:25.547Z,1.90
2022-07-27T16:15:25.547Z,1.30
2022-07-27T16:25:45.815Z,1.70
2022-07-27T16:35:25.582Z,1.90
2022-07-27T16:45:25.563Z,1.60
2022-07-27T16:55:27.375Z,1.60
2022-07-27T17:05:25.563Z,1.80
2022-07-27T17:15:25.568Z,1.30
2022-07-27T17:25:25.576Z,1.40
2022-07-27T17:35:25.589Z,1.70
2022-07-27T17:45:25.596Z,1.50
2022-07-27T17:55:25.594Z,1.70
2022-07-27T18:05:25.595Z,1.90
2022-07-27T18:15:25.618Z,1.90
2022-07-27T18:25:25.616Z,1.60
2022-07-27T18:35:25.660Z,1.60
2022-07-27T18:45:34.520Z,1.70
2022-07-27T18:55:25.629Z,1.90
2022-07-27T19:05:32.329Z,1.80
2022-07-27T19:15:25.628Z,1.80
2022-07-27T19:25:25.623Z,2.20
2022-07-27T19:35:25.746Z,1.70
2022-07-27T19:45:25.641Z,3.60
2022-07-27T19:55:25.817Z,1.60
2022-07-27T20:05:25.638Z,1.70
2022-07-27T20:15:25.650Z,2.40
2022-07-27T20:25:25.668Z,2.10
2022-07-27T20:35:35.139Z,2.10
2022-07-27T20:45:25.663Z,1.90
2022-07-27T20:55:25.664Z,1.80
2022-07-27T21:05:25.672Z,2.00
2022-07-27T21:15:33.444Z,2.20
2022-07-27T21:25:25.679Z,1.90
2022-07-27T21:35:25.797Z,1.70
2022-07-27T21:45:25.733Z,1.60
2022-07-27T21:55:25.727Z,1.70
2022-07-27T22:05:25.690Z,1.70
2022-07-27T22:15:25.695Z,1.70
2022-07-27T22:25:25.686Z,1.90
2022-07-27T22:35:26.016Z,1.80
2022-07-27T22:45:25.749Z,2.00
2022-07-27T22:55:25.693Z,1.60
2022-07-27T23:05:25.754Z,1.80
2022-07-27T23:15:25.705Z,2.10
2022-07-27T23:25:34.969Z,1.80
2022-07-27T23:35:26.032Z,2.00
2022-07-27T23:45:25.707Z,1.80
2022-07-27T23:55:25.705Z,1.50
